This is the latest recevied weather packets stored in our database for station/object EA1IOS-11. If no packets are shown the sender has not sent any weather packets the latest 10 day(s).
| Time | Temp. | Humidity | Pressure | Rain* | Wind** | Luminosity | Snow |
|---|---|---|---|---|---|---|---|
| 1777809619 | 15.56° C | 83% | 1014 hPa | 0 mm | - | - | - |
| 1777807518 | 16.11° C | 83% | 1014.3 hPa | 0 mm | - | - | - |
| 1777806975 | 15.56° C | 81% | 1014.3 hPa | 0 mm | - | - | - |
| 1777805755 | 17.22° C | 81% | 1014.3 hPa | 0 mm | - | - | - |
| 1777803347 | 16.67° C | 82% | 1014.2 hPa | 0 mm | - | - | - |
| 1777802187 | 17.22° C | 80% | 1014.2 hPa | 0 mm | - | - | - |
| 1777799149 | 16.11° C | 85% | 1014 hPa | 0 mm | - | - | - |
| 1777797365 | 16.67° C | 81% | 1014.1 hPa | 0 mm | - | - | - |
| 1777795561 | 15.56° C | 84% | 1014.1 hPa | 0 mm | - | - | - |
| 1777793463 | 14.44° C | 90% | 1014.2 hPa | 0 mm | - | - | - |
| 1777788657 | 12.78° C | 95% | 1013.7 hPa | 0 mm | - | - | - |
| 1777786229 | 12.22° C | 96% | 1013.8 hPa | 0 mm | - | - | - |
| 1777773642 | 13.89° C | 96% | 1014.2 hPa | 0 mm | - | - | - |
| 1777765533 | 14.44° C | 94% | 1015.1 hPa | 0 mm | - | - | - |
| 1777763166 | 14.44° C | 94% | 1015.1 hPa | 0 mm | - | - | - |
| 1777762556 | 14.44° C | 94% | 1015.2 hPa | 0 mm | - | - | - |
| 1777756535 | 15° C | 94% | 1015.8 hPa | 1.27 mm | - | - | - |
| 1777755341 | 15° C | 92% | 1015.3 hPa | 1.02 mm | - | - | - |
| 1777750519 | 15° C | 93% | 1015.5 hPa | 0 mm | - | - | - |
| 1777745167 | 16.11° C | 90% | 1015.3 hPa | 0 mm | - | - | - |
| 1777743343 | 16.67° C | 87% | 1015.4 hPa | 0 mm | - | - | - |
| 1777739757 | 16.11° C | 92% | 1015.4 hPa | 0 mm | - | - | - |
| 1777737322 | 15.56° C | 93% | 1015.4 hPa | 0.25 mm | - | - | - |
| 1777736169 | 16.11° C | 94% | 1015.4 hPa | 1.52 mm | - | - | - |
| 1777734344 | 15.56° C | 95% | 1015.7 hPa | 1.78 mm | - | - | - |
* Rain latest hour (hover to see other rain measurements)
** Current wind speed in m/s (hover to see current wind gust speed)